createdAt,value
2018-12-07T00:01:04.056Z,21.8
2018-12-07T00:11:03.260Z,21.8
2018-12-07T00:21:02.456Z,21.7
2018-12-07T00:31:01.662Z,21.7
2018-12-07T00:41:00.865Z,21.7
2018-12-07T00:51:00.079Z,21.6
2018-12-07T01:00:59.268Z,21.6
2018-12-07T01:10:58.474Z,21.7
2018-12-07T01:20:57.682Z,21.9
2018-12-07T01:30:56.884Z,21.9
2018-12-07T01:40:56.086Z,22.1
2018-12-07T01:50:55.292Z,22
2018-12-07T02:00:54.494Z,22
2018-12-07T02:10:53.694Z,21.8
2018-12-07T02:20:52.895Z,22
2018-12-07T02:30:52.147Z,21.9
2018-12-07T02:40:51.302Z,22.1
2018-12-07T02:50:50.502Z,22.1
2018-12-07T03:00:49.710Z,22
2018-12-07T03:10:48.909Z,21.9
2018-12-07T03:20:48.112Z,21.7
2018-12-07T03:30:47.362Z,21.6
2018-12-07T03:40:46.518Z,21.9
2018-12-07T03:50:45.725Z,21.8
2018-12-07T04:00:44.926Z,21.7
2018-12-07T04:10:44.127Z,21.8
2018-12-07T04:20:43.384Z,21.9
2018-12-07T04:30:42.621Z,22.1
2018-12-07T04:40:41.749Z,21.9
2018-12-07T04:50:40.956Z,21.7
2018-12-07T05:00:40.171Z,21.6
2018-12-07T05:10:39.383Z,21.6
2018-12-07T05:20:38.595Z,21.6
2018-12-07T05:30:37.926Z,21.5
2018-12-07T05:40:37.006Z,21.5
2018-12-07T05:50:36.212Z,21.5
2018-12-07T06:00:35.430Z,21.8
2018-12-07T06:10:34.631Z,22.1
2018-12-07T06:20:33.885Z,22.2
2018-12-07T06:30:33.035Z,21.9
2018-12-07T06:40:32.251Z,22
2018-12-07T06:50:31.448Z,22.3
2018-12-07T07:00:30.648Z,22.4
2018-12-07T07:10:29.852Z,22.4
2018-12-07T07:20:29.065Z,22.2
2018-12-07T07:30:28.265Z,22.1
2018-12-07T07:40:27.461Z,22
2018-12-07T07:50:26.665Z,21.9
2018-12-07T08:00:25.867Z,21.9
2018-12-07T08:10:25.074Z,21.8
2018-12-07T08:20:24.280Z,21.8
2018-12-07T08:30:23.482Z,21.8
2018-12-07T08:40:22.680Z,21.8
2018-12-07T08:50:21.883Z,21.7
2018-12-07T09:00:21.086Z,21.9
2018-12-07T09:10:20.287Z,22.3
2018-12-07T09:20:19.491Z,22.4
2018-12-07T09:30:18.697Z,22.5
2018-12-07T09:40:17.903Z,22.3
2018-12-07T09:50:17.110Z,22.1
2018-12-07T10:00:16.298Z,22.1
2018-12-07T10:10:15.504Z,22
2018-12-07T10:20:14.708Z,21.9
2018-12-07T10:30:13.915Z,21.9
2018-12-07T10:40:13.115Z,21.9
2018-12-07T10:50:12.318Z,22.3
2018-12-07T11:00:11.528Z,22.4
2018-12-07T11:10:10.725Z,22.6
2018-12-07T11:20:09.938Z,22.4
2018-12-07T11:30:09.147Z,22.2
2018-12-07T11:40:08.355Z,22.1
2018-12-07T11:50:07.558Z,21.9
2018-12-07T12:00:07.819Z,21.8
2018-12-07T12:10:05.976Z,21.8
2018-12-07T12:20:05.179Z,21.8
2018-12-07T12:30:04.376Z,22.1
2018-12-07T12:40:03.590Z,22.2
2018-12-07T12:50:02.788Z,22.2
2018-12-07T13:00:02.043Z,22.1
2018-12-07T13:10:01.190Z,22.2
2018-12-07T13:20:00.397Z,22.4
2018-12-07T13:29:59.599Z,22.4
2018-12-07T13:39:58.901Z,22.4
2018-12-07T13:49:58.091Z,22.4
2018-12-07T13:59:57.381Z,22.4
2018-12-07T14:09:56.588Z,22.4
2018-12-07T14:19:55.720Z,22.6
2018-12-07T14:29:54.944Z,22.4
2018-12-07T14:39:54.206Z,22.3
2018-12-07T14:49:53.281Z,22.2
2018-12-07T14:59:52.479Z,22.1
2018-12-07T15:09:51.683Z,22
2018-12-07T15:19:50.893Z,21.9
2018-12-07T15:29:50.046Z,21.8
2018-12-07T15:39:49.317Z,21.8
2018-12-07T15:49:48.528Z,21.7
2018-12-07T15:59:47.893Z,22
2018-12-07T16:09:46.908Z,22.1
2018-12-07T16:19:46.311Z,21.9
2018-12-07T16:29:45.310Z,21.8
2018-12-07T16:39:44.548Z,21.8
2018-12-07T16:49:43.715Z,21.8
2018-12-07T16:59:42.902Z,21.7
2018-12-07T17:09:42.297Z,21.6
2018-12-07T17:19:41.398Z,21.9
2018-12-07T17:29:40.684Z,22.1
2018-12-07T17:39:40.042Z,22.1
2018-12-07T17:49:39.074Z,21.9
2018-12-07T17:59:38.151Z,21.9
2018-12-07T18:09:37.407Z,21.9
2018-12-07T18:19:36.574Z,21.8
2018-12-07T18:29:35.825Z,21.8
2018-12-07T18:39:34.977Z,21.8
2018-12-07T18:49:34.391Z,22.1
2018-12-07T18:59:33.395Z,22.2
2018-12-07T19:09:32.641Z,22.1
2018-12-07T19:19:31.948Z,21.9
2018-12-07T19:29:31.089Z,21.8
2018-12-07T19:39:30.454Z,21.8
2018-12-07T19:49:29.537Z,21.7
2018-12-07T19:59:28.824Z,21.6
2018-12-07T20:09:27.920Z,21.7
2018-12-07T20:19:27.114Z,22
2018-12-07T20:29:26.340Z,22.1
2018-12-07T20:39:25.454Z,22
2018-12-07T22:19:17.851Z,21.3
2018-12-07T22:29:16.827Z,21.6
2018-12-07T22:39:16.281Z,21.6
2018-12-07T22:49:15.169Z,21.5
2018-12-07T22:59:14.362Z,21.4
2018-12-07T23:09:13.568Z,21.4
2018-12-07T23:19:12.774Z,21.4
2018-12-07T23:29:11.982Z,21.7
2018-12-07T23:39:11.184Z,21.7
2018-12-07T23:49:10.392Z,21.8
2018-12-07T23:59:09.591Z,21.8
